Time;durP1;ratioP1;P1;durP2;ratioP2;P2;SDS_P1;SDS_P2;PMS_P1;PMS_P2;Temp;Humidity;BMP_temperature;BMP_pressure;BME280_temperature;BME280_humidity;BME280_pressure;Samples;Min_cycle;Max_cycle;Signal;HPM_P1;HPM_P2
2023/12/30 00:02:22;;;;;;;0.47;0.30;;;7.50;99.90;;;;;;5048255;28;21044;-78
2023/12/30 00:04:49;;;;;;;0.33;0.30;;;7.50;99.90;;;;;;5047982;28;20311;-78
2023/12/30 00:07:16;;;;;;;0.20;0.20;;;7.60;99.90;;;;;;5048389;28;20208;-77
2023/12/30 00:09:43;;;;;;;0.30;0.30;;;7.60;99.90;;;;;;5048411;28;20327;-77
2023/12/30 00:12:10;;;;;;;0.10;0.10;;;7.70;99.90;;;;;;5029484;28;20241;-78
2023/12/30 00:14:37;;;;;;;1.23;0.23;;;7.60;99.90;;;;;;5028477;28;20247;-78
2023/12/30 00:17:04;;;;;;;0.30;0.30;;;7.60;99.90;;;;;;5027985;28;20783;-78
2023/12/30 00:19:34;;;;;;;0.43;0.33;;;7.70;99.90;;;;;;5028690;28;20270;-78
2023/12/30 00:22:01;;;;;;;0.20;0.20;;;7.70;99.90;;;;;;5028356;28;20204;-78
2023/12/30 00:24:28;;;;;;;0.70;0.50;;;7.70;99.90;;;;;;5028372;28;20678;-78
2023/12/30 00:26:55;;;;;;;0.40;0.40;;;7.70;99.90;;;;;;5028614;28;20679;-78
2023/12/30 00:29:22;;;;;;;0.40;0.40;;;7.80;99.90;;;;;;5036014;28;20204;-77
2023/12/30 00:31:49;;;;;;;0.30;0.30;;;7.80;99.90;;;;;;5028264;28;20291;-79
2023/12/30 00:34:16;;;;;;;0.40;0.40;;;7.80;99.90;;;;;;5028295;28;20211;-78
2023/12/30 00:36:44;;;;;;;0.50;0.50;;;7.80;99.90;;;;;;5028273;28;20300;-78
2023/12/30 00:39:11;;;;;;;0.80;0.27;;;7.80;99.90;;;;;;5028181;28;20211;-78
2023/12/30 00:41:38;;;;;;;0.27;0.27;;;7.80;99.90;;;;;;5027739;28;20205;-78
2023/12/30 00:44:05;;;;;;;1.13;0.50;;;7.90;99.90;;;;;;5027416;28;20303;-79
2023/12/30 00:46:32;;;;;;;0.93;0.50;;;7.80;99.90;;;;;;5031768;28;20207;-77
2023/12/30 00:48:59;;;;;;;1.10;0.50;;;7.80;99.90;;;;;;5047748;28;20217;-77
2023/12/30 00:51:26;;;;;;;1.60;0.80;;;7.80;99.90;;;;;;5047404;28;20615;-77
2023/12/30 00:53:54;;;;;;;0.50;0.50;;;7.90;99.90;;;;;;5047200;28;20212;-77
2023/12/30 00:56:21;;;;;;;0.40;0.40;;;7.90;99.90;;;;;;5047397;28;20228;-77
2023/12/30 00:58:48;;;;;;;0.73;0.40;;;8.00;99.90;;;;;;5047488;28;20298;-77
2023/12/30 01:01:15;;;;;;;1.07;0.50;;;8.00;99.90;;;;;;5036631;28;20213;-78
2023/12/30 01:03:42;;;;;;;1.53;0.60;;;8.00;99.90;;;;;;5027631;28;20232;-79
2023/12/30 01:06:09;;;;;;;1.13;1.00;;;8.00;99.90;;;;;;5026491;28;20299;-79
2023/12/30 01:08:36;;;;;;;0.60;0.60;;;8.00;99.90;;;;;;5027372;28;20283;-79
2023/12/30 01:11:04;;;;;;;1.23;0.50;;;8.00;99.90;;;;;;5027278;28;20279;-79
2023/12/30 01:13:31;;;;;;;0.60;0.30;;;8.00;99.90;;;;;;5027301;28;20705;-78
2023/12/30 01:15:58;;;;;;;0.60;0.60;;;8.00;99.90;;;;;;5027530;28;20236;-79
2023/12/30 01:18:25;;;;;;;0.70;0.40;;;7.90;99.90;;;;;;5027448;28;20244;-77
2023/12/30 01:20:52;;;;;;;0.63;0.30;;;7.90;99.90;;;;;;5027127;28;20247;-78
2023/12/30 01:23:18;;;;;;;0.83;0.37;;;7.90;99.90;;;;;;5026720;28;20201;-78
2023/12/30 01:25:45;;;;;;;0.33;0.33;;;7.90;99.90;;;;;;5046531;28;20232;-78
2023/12/30 01:28:13;;;;;;;0.27;0.20;;;7.90;99.90;;;;;;5046840;28;20208;-77
2023/12/30 01:30:41;;;;;;;0.60;0.60;;;7.90;99.90;;;;;;5046966;28;20287;-78
2023/12/30 01:33:08;;;;;;;0.40;0.40;;;7.90;99.90;;;;;;5047173;28;20203;-78
2023/12/30 01:35:35;;;;;;;1.77;0.47;;;7.80;99.90;;;;;;5047456;28;20200;-78
2023/12/30 01:38:02;;;;;;;1.50;0.50;;;7.80;99.90;;;;;;5046807;28;20226;-79
2023/12/30 01:40:28;;;;;;;0.53;0.53;;;7.80;99.90;;;;;;5047062;28;20236;-78
2023/12/30 01:42:55;;;;;;;1.67;0.60;;;7.80;99.90;;;;;;5047228;28;20208;-78
2023/12/30 01:45:24;;;;;;;0.50;0.50;;;7.80;99.90;;;;;;5047395;28;20666;-78
2023/12/30 01:47:51;;;;;;;1.13;0.50;;;7.80;99.90;;;;;;5046904;28;20239;-78
2023/12/30 01:50:18;;;;;;;1.63;0.40;;;7.80;99.90;;;;;;5033174;28;20255;-77
2023/12/30 01:52:47;;;;;;;2.03;0.60;;;7.80;99.90;;;;;;5026912;28;20300;-77
2023/12/30 01:55:15;;;;;;;1.40;0.80;;;7.80;99.90;;;;;;5042489;28;20212;-76
2023/12/30 01:57:43;;;;;;;0.93;0.60;;;7.80;99.90;;;;;;5045959;28;20239;-76
2023/12/30 02:00:16;;;;;;;0.70;0.70;;;7.80;99.90;;;;;;5046738;28;20291;-76
2023/12/30 02:02:45;;;;;;;2.03;1.13;;;7.80;99.90;;;;;;5046985;28;20497;-77
2023/12/30 02:05:11;;;;;;;2.43;0.90;;;7.90;99.90;;;;;;5047077;28;20278;-77
2023/12/30 02:07:39;;;;;;;1.63;0.70;;;7.80;99.90;;;;;;5046506;28;20688;-78
2023/12/30 02:10:06;;;;;;;1.27;1.17;;;7.80;99.90;;;;;;5029407;28;20761;-77
2023/12/30 02:12:34;;;;;;;1.67;1.00;;;7.70;99.90;;;;;;5026809;28;20208;-77
2023/12/30 02:15:12;;;;;;;2.03;0.97;;;7.70;99.90;;;;;;5027033;28;20695;-78
2023/12/30 02:17:39;;;;;;;3.23;1.13;;;7.80;99.90;;;;;;5027433;28;20228;-78
2023/12/30 02:20:08;;;;;;;2.73;1.20;;;7.80;99.90;;;;;;5030499;28;20239;-78
2023/12/30 02:22:35;;;;;;;2.07;1.07;;;7.70;99.90;;;;;;5044077;28;20395;-77
2023/12/30 02:25:04;;;;;;;2.37;1.00;;;7.70;99.90;;;;;;5050637;28;20318;-78
2023/12/30 02:27:31;;;;;;;1.43;0.80;;;7.70;99.90;;;;;;5050446;28;20639;-78
2023/12/30 02:29:58;;;;;;;4.50;0.90;;;7.70;99.90;;;;;;5050735;28;20719;-78
2023/12/30 02:32:25;;;;;;;1.23;0.70;;;7.70;99.90;;;;;;5050476;28;20625;-78
2023/12/30 02:34:52;;;;;;;0.70;0.70;;;7.70;99.90;;;;;;5050697;28;20306;-78
2023/12/30 02:37:18;;;;;;;1.13;0.90;;;7.70;99.90;;;;;;5050359;28;20588;-78
2023/12/30 02:39:45;;;;;;;1.20;0.67;;;7.70;99.90;;;;;;5050206;28;20311;-81
2023/12/30 02:42:14;;;;;;;2.53;0.97;;;7.60;99.90;;;;;;5050291;28;20313;-78
2023/12/30 02:44:40;;;;;;;0.80;0.80;;;7.70;99.90;;;;;;5049345;28;20693;-78
2023/12/30 02:47:07;;;;;;;0.70;0.50;;;7.70;99.90;;;;;;5047935;28;20240;-80
2023/12/30 02:49:34;;;;;;;1.80;0.70;;;7.70;99.90;;;;;;5050339;28;20242;-81
2023/12/30 02:52:01;;;;;;;0.60;0.50;;;7.70;99.90;;;;;;5050135;28;20254;-84
2023/12/30 02:54:29;;;;;;;0.57;0.57;;;7.60;99.90;;;;;;5034218;28;20657;-81
2023/12/30 02:56:57;;;;;;;0.83;0.50;;;7.60;99.90;;;;;;5030014;28;20689;-79
2023/12/30 02:59:25;;;;;;;0.63;0.60;;;7.60;99.90;;;;;;5029757;28;20956;-78
2023/12/30 03:01:52;;;;;;;1.17;0.33;;;7.60;99.90;;;;;;5029957;28;20304;-79
2023/12/30 03:04:19;;;;;;;0.60;0.60;;;7.70;99.90;;;;;;5029590;28;20256;-79
2023/12/30 03:06:46;;;;;;;1.10;0.50;;;7.60;99.90;;;;;;5029823;28;20648;-79
2023/12/30 03:09:12;;;;;;;1.43;0.67;;;7.60;99.90;;;;;;5029397;28;20327;-79
2023/12/30 03:11:40;;;;;;;0.50;0.50;;;7.60;99.90;;;;;;5029553;28;20668;-78
2023/12/30 03:14:07;;;;;;;0.60;0.47;;;7.60;99.90;;;;;;5029609;28;20258;-79
2023/12/30 03:16:35;;;;;;;0.63;0.60;;;7.60;99.90;;;;;;5029720;28;20307;-79
2023/12/30 03:19:02;;;;;;;1.30;0.53;;;7.60;99.90;;;;;;5044411;28;20535;-78
2023/12/30 03:21:29;;;;;;;0.30;0.30;;;7.60;99.90;;;;;;5049589;28;20608;-79
2023/12/30 03:23:56;;;;;;;1.47;0.50;;;7.60;99.90;;;;;;5049567;28;20651;-79
2023/12/30 03:26:23;;;;;;;0.93;0.40;;;7.60;99.90;;;;;;5048735;28;20330;-79
2023/12/30 03:28:50;;;;;;;0.73;0.50;;;7.60;99.90;;;;;;5048718;28;20201;-78
2023/12/30 03:31:22;;;;;;;1.40;0.50;;;7.60;99.90;;;;;;5048996;28;20295;-78
2023/12/30 03:33:50;;;;;;;0.90;0.60;;;7.50;99.90;;;;;;5049136;28;20235;-77
2023/12/30 03:36:17;;;;;;;0.10;0.10;;;7.50;99.90;;;;;;5048959;28;20273;-78
2023/12/30 03:38:44;;;;;;;2.10;0.50;;;7.60;99.90;;;;;;5048413;28;20240;-78
2023/12/30 03:41:11;;;;;;;0.83;0.40;;;7.60;99.90;;;;;;5048248;28;20695;-77
2023/12/30 03:43:37;;;;;;;0.60;0.40;;;7.50;99.90;;;;;;5047967;28;20680;-77
2023/12/30 03:46:04;;;;;;;0.77;0.60;;;7.60;99.90;;;;;;5048686;28;20330;-79
2023/12/30 03:48:32;;;;;;;0.73;0.40;;;7.50;99.90;;;;;;5048840;28;20947;-79
2023/12/30 03:51:00;;;;;;;1.40;0.50;;;7.50;99.90;;;;;;5030540;28;20209;-78
2023/12/30 03:53:27;;;;;;;0.60;0.40;;;7.50;99.90;;;;;;5029475;28;20274;-79
2023/12/30 03:55:54;;;;;;;0.83;0.50;;;7.50;99.90;;;;;;5048496;28;20554;-78
2023/12/30 03:58:21;;;;;;;1.63;0.50;;;7.50;99.90;;;;;;5048123;28;20258;-78
2023/12/30 04:00:48;;;;;;;0.93;0.43;;;7.50;99.90;;;;;;5049022;28;20235;-78
2023/12/30 04:03:15;;;;;;;0.77;0.40;;;7.50;99.90;;;;;;5048354;28;20250;-79
2023/12/30 04:05:42;;;;;;;0.50;0.30;;;7.50;99.90;;;;;;5048466;28;20323;-78
2023/12/30 04:08:10;;;;;;;4.57;0.40;;;7.50;99.90;;;;;;5048338;28;20300;-79
2023/12/30 04:10:37;;;;;;;0.93;0.50;;;7.50;99.90;;;;;;5048229;28;20259;-79
2023/12/30 04:13:04;;;;;;;1.10;0.30;;;7.50;99.90;;;;;;5048411;28;20247;-79
2023/12/30 04:15:31;;;;;;;0.33;0.30;;;7.50;99.90;;;;;;5048202;28;20299;-78
2023/12/30 04:18:04;;;;;;;2.33;0.30;;;7.50;99.90;;;;;;5048257;28;20327;-79
2023/12/30 04:20:31;;;;;;;0.40;0.30;;;7.50;99.90;;;;;;5048488;28;20290;-78
2023/12/30 04:22:58;;;;;;;1.40;0.57;;;7.50;99.90;;;;;;5047956;28;20251;-78
2023/12/30 04:25:26;;;;;;;3.60;0.60;;;7.50;99.90;;;;;;5047600;28;20687;-78
2023/12/30 04:27:53;;;;;;;2.43;0.60;;;7.50;99.90;;;;;;5048254;28;20226;-78
2023/12/30 04:30:19;;;;;;;0.77;0.40;;;7.50;99.90;;;;;;5048259;28;20302;-79
2023/12/30 04:32:46;;;;;;;0.10;0.10;;;7.40;99.90;;;;;;5047635;28;20636;-79
2023/12/30 04:35:13;;;;;;;0.43;0.30;;;7.40;99.90;;;;;;5048022;28;20679;-78
2023/12/30 04:37:40;;;;;;;0.40;0.40;;;7.40;99.90;;;;;;5047617;28;20295;-79
2023/12/30 04:40:08;;;;;;;1.13;0.40;;;7.30;99.90;;;;;;5047136;28;20291;-79
2023/12/30 04:42:36;;;;;;;3.60;0.30;;;7.40;99.90;;;;;;5048079;28;20291;-77
2023/12/30 04:45:04;;;;;;;1.37;0.30;;;7.30;99.90;;;;;;5047013;28;20323;-78
2023/12/30 04:47:31;;;;;;;0.43;0.30;;;7.30;99.90;;;;;;5047239;28;20218;-75
2023/12/30 04:49:57;;;;;;;0.40;0.37;;;7.30;99.90;;;;;;5047813;28;20406;-75
2023/12/30 04:52:24;;;;;;;0.20;0.20;;;7.30;99.90;;;;;;5047497;28;20231;-75
2023/12/30 04:54:51;;;;;;;0.63;0.40;;;7.20;99.90;;;;;;5047008;28;20303;-76
2023/12/30 04:57:18;;;;;;;0.33;0.23;;;7.20;99.90;;;;;;5047060;28;20295;-76
2023/12/30 04:59:46;;;;;;;0.63;0.50;;;7.20;99.90;;;;;;5047083;28;20279;-75
2023/12/30 05:02:13;;;;;;;0.20;0.20;;;7.10;99.90;;;;;;5046755;28;20257;-76
2023/12/30 05:04:43;;;;;;;0.27;0.27;;;7.10;99.90;;;;;;5047043;28;20758;-76
2023/12/30 05:07:10;;;;;;;0.33;0.20;;;7.10;99.90;;;;;;5043048;28;20205;-79
2023/12/30 05:09:37;;;;;;;0.50;0.33;;;7.10;99.90;;;;;;5036967;28;20260;-79
2023/12/30 05:12:04;;;;;;;0.27;0.23;;;7.10;99.90;;;;;;5038228;28;20204;-79
2023/12/30 05:14:32;;;;;;;1.30;0.40;;;7.10;99.90;;;;;;5040979;28;20203;-80
2023/12/30 05:17:00;;;;;;;0.50;0.50;;;7.10;99.90;;;;;;5038518;28;20326;-78
2023/12/30 05:19:27;;;;;;;0.20;0.17;;;7.10;99.90;;;;;;5035991;28;20296;-77
2023/12/30 05:21:54;;;;;;;0.53;0.40;;;7.10;99.90;;;;;;5036380;28;20205;-78
2023/12/30 05:24:21;;;;;;;0.60;0.30;;;7.10;99.90;;;;;;5030912;28;20201;-77
2023/12/30 05:26:49;;;;;;;0.33;0.33;;;7.10;99.90;;;;;;5027647;28;20239;-80
2023/12/30 05:29:16;;;;;;;1.83;0.70;;;7.10;99.90;;;;;;5027340;28;20289;-79
2023/12/30 05:31:43;;;;;;;0.60;0.40;;;7.10;99.90;;;;;;5046347;28;20659;-80
2023/12/30 05:34:11;;;;;;;0.20;0.20;;;7.10;99.90;;;;;;5046305;28;20655;-80
2023/12/30 05:36:38;;;;;;;0.20;0.20;;;7.00;99.90;;;;;;5047180;28;20265;-80
2023/12/30 05:39:05;;;;;;;0.30;0.30;;;7.10;99.90;;;;;;5047033;28;20303;-79
2023/12/30 05:41:32;;;;;;;0.93;0.50;;;7.00;99.90;;;;;;5044887;28;20287;-80
2023/12/30 05:43:59;;;;;;;0.53;0.27;;;7.00;99.90;;;;;;5027508;28;20296;-79
2023/12/30 05:46:26;;;;;;;0.67;0.53;;;7.00;99.90;;;;;;5027307;28;20243;-80
2023/12/30 05:48:53;;;;;;;4.23;0.80;;;6.90;99.90;;;;;;5027404;28;20204;-80
2023/12/30 05:51:21;;;;;;;0.77;0.57;;;7.00;99.90;;;;;;5027801;28;20296;-80
2023/12/30 05:53:48;;;;;;;1.23;0.53;;;6.90;99.90;;;;;;5034155;28;20303;-79
2023/12/30 05:56:22;;;;;;;0.63;0.30;;;7.00;99.90;;;;;;5051133;28;20210;-80
2023/12/30 05:58:49;;;;;;;3.13;0.40;;;6.90;99.90;;;;;;5050798;28;20666;-80
2023/12/30 06:01:16;;;;;;;0.77;0.40;;;6.90;99.90;;;;;;5050756;28;20208;-80
2023/12/30 06:03:43;;;;;;;1.20;0.53;;;6.90;99.90;;;;;;5051022;28;20291;-81
2023/12/30 06:06:10;;;;;;;1.03;0.60;;;6.80;99.90;;;;;;5050858;28;20662;-79
2023/12/30 06:08:38;;;;;;;0.57;0.37;;;6.80;99.90;;;;;;5050565;28;20675;-80
2023/12/30 06:11:05;;;;;;;0.90;0.50;;;6.70;99.90;;;;;;5050790;28;20291;-80
2023/12/30 06:13:34;;;;;;;0.40;0.30;;;6.70;99.90;;;;;;5050321;28;20295;-80
2023/12/30 06:16:01;;;;;;;1.10;0.40;;;6.70;99.90;;;;;;5050541;28;20862;-79
2023/12/30 06:18:30;;;;;;;1.07;0.50;;;6.60;99.90;;;;;;5050695;28;20311;-80
2023/12/30 06:20:58;;;;;;;1.67;0.30;;;6.60;99.90;;;;;;5050395;28;20220;-80
2023/12/30 06:23:27;;;;;;;0.87;0.30;;;6.60;99.90;;;;;;5050206;28;20204;-80
2023/12/30 06:25:55;;;;;;;3.50;0.50;;;6.60;99.90;;;;;;5050523;28;20239;-81
2023/12/30 06:28:24;;;;;;;0.50;0.40;;;6.50;99.90;;;;;;5050328;28;20316;-81
2023/12/30 06:30:51;;;;;;;1.20;1.10;;;6.50;99.90;;;;;;5050026;28;20219;-81
2023/12/30 06:33:18;;;;;;;1.53;1.30;;;6.50;99.90;;;;;;5049561;28;20218;-81
2023/12/30 06:35:45;;;;;;;0.93;0.50;;;6.50;99.90;;;;;;5049918;28;20626;-80
2023/12/30 06:38:11;;;;;;;0.67;0.53;;;6.50;99.90;;;;;;5049255;28;20208;-81
2023/12/30 06:40:39;;;;;;;0.97;0.50;;;6.50;99.90;;;;;;5049827;28;20303;-80
2023/12/30 06:43:07;;;;;;;1.67;0.40;;;6.50;99.90;;;;;;5049749;28;20208;-80
2023/12/30 06:45:34;;;;;;;0.90;0.60;;;6.50;99.90;;;;;;5049918;28;20330;-79
2023/12/30 06:48:01;;;;;;;0.63;0.50;;;6.40;99.90;;;;;;5049878;28;20246;-80
2023/12/30 06:50:28;;;;;;;1.10;0.77;;;6.40;99.90;;;;;;5050028;28;20291;-80
2023/12/30 06:52:55;;;;;;;1.30;0.70;;;6.40;99.90;;;;;;5049656;28;20239;-79
2023/12/30 06:55:22;;;;;;;1.83;0.50;;;6.40;99.90;;;;;;5049798;28;20218;-79
2023/12/30 06:57:49;;;;;;;1.60;0.40;;;6.40;99.90;;;;;;5049313;28;20239;-79
2023/12/30 07:00:18;;;;;;;1.30;0.60;;;6.40;99.90;;;;;;5049381;28;21071;-78
2023/12/30 07:02:45;;;;;;;1.47;0.60;;;6.40;99.90;;;;;;5049381;28;20636;-82
2023/12/30 07:05:12;;;;;;;1.60;0.60;;;6.30;99.90;;;;;;5049256;28;20204;-82
2023/12/30 07:07:39;;;;;;;1.23;1.07;;;6.40;99.90;;;;;;5049570;28;20230;-82
2023/12/30 07:10:07;;;;;;;1.50;0.83;;;6.30;99.90;;;;;;5049237;28;20278;-83
2023/12/30 07:12:34;;;;;;;2.23;0.97;;;6.30;99.90;;;;;;5049360;28;20243;-82
2023/12/30 07:15:01;;;;;;;0.77;0.53;;;6.30;99.90;;;;;;5049834;28;20212;-81
2023/12/30 07:17:29;;;;;;;1.70;0.60;;;6.30;99.90;;;;;;5049461;28;20321;-82
2023/12/30 07:19:56;;;;;;;2.10;0.50;;;6.20;99.90;;;;;;5049589;28;20231;-83
2023/12/30 07:22:24;;;;;;;2.63;0.47;;;6.20;99.90;;;;;;5048989;28;20208;-82
2023/12/30 07:24:51;;;;;;;1.90;0.63;;;6.30;99.90;;;;;;5048954;28;20808;-82
2023/12/30 07:27:18;;;;;;;2.27;0.57;;;6.30;99.90;;;;;;5048626;28;20267;-82
2023/12/30 07:29:45;;;;;;;1.80;0.77;;;6.30;99.90;;;;;;5048977;28;20204;-82
2023/12/30 07:32:12;;;;;;;1.93;0.60;;;6.30;99.90;;;;;;5048585;28;20239;-83
2023/12/30 07:34:40;;;;;;;2.23;0.63;;;6.30;99.90;;;;;;5047502;28;20296;-82
2023/12/30 07:37:07;;;;;;;2.30;0.70;;;6.30;99.90;;;;;;5048770;28;20212;-82
2023/12/30 07:39:34;;;;;;;1.20;0.80;;;6.30;99.90;;;;;;5048556;28;20204;-82
2023/12/30 07:42:01;;;;;;;0.83;0.60;;;6.30;99.90;;;;;;5049020;28;20219;-78
2023/12/30 07:44:29;;;;;;;1.87;0.63;;;6.30;99.90;;;;;;5049084;28;20204;-78
2023/12/30 07:46:56;;;;;;;2.83;0.80;;;6.30;99.90;;;;;;5049000;28;20764;-78
2023/12/30 07:49:23;;;;;;;2.93;0.77;;;6.30;99.90;;;;;;5048909;28;20204;-79
2023/12/30 07:51:53;;;;;;;2.13;0.60;;;6.30;99.90;;;;;;5048995;28;20208;-79
2023/12/30 07:54:19;;;;;;;0.97;0.57;;;6.30;99.90;;;;;;5048221;28;20679;-79
2023/12/30 07:56:46;;;;;;;2.20;0.67;;;6.40;99.90;;;;;;5048812;28;20302;-79
2023/12/30 07:59:13;;;;;;;1.00;0.60;;;6.30;99.90;;;;;;5048289;28;20204;-78
2023/12/30 08:01:44;;;;;;;1.07;0.60;;;6.30;99.90;;;;;;5048543;28;20734;-78
2023/12/30 08:04:11;;;;;;;0.50;0.50;;;6.30;99.90;;;;;;5048276;28;20320;-78
2023/12/30 08:06:40;;;;;;;2.63;0.73;;;6.30;99.90;;;;;;5048779;28;20236;-80
2023/12/30 08:09:09;;;;;;;4.40;3.63;;;6.30;99.90;;;;;;5048143;28;20247;-81
2023/12/30 08:11:36;;;;;;;2.57;1.00;;;6.30;99.90;;;;;;5048830;28;20204;-82
2023/12/30 08:14:03;;;;;;;1.00;0.70;;;6.30;99.90;;;;;;5048287;28;20299;-80
2023/12/30 08:16:30;;;;;;;1.33;0.97;;;6.20;99.90;;;;;;5047318;28;20242;-77
2023/12/30 08:18:57;;;;;;;1.60;0.90;;;6.20;99.90;;;;;;5048092;28;20242;-77
2023/12/30 08:21:24;;;;;;;1.13;0.60;;;6.30;99.90;;;;;;5047761;28;20299;-77
2023/12/30 08:23:50;;;;;;;3.53;0.90;;;6.30;99.90;;;;;;5043521;28;20251;-76
2023/12/30 08:26:19;;;;;;;2.00;0.60;;;6.30;99.90;;;;;;5027447;28;20670;-77
2023/12/30 08:28:46;;;;;;;2.53;0.80;;;6.30;99.90;;;;;;5027751;28;20201;-78
2023/12/30 08:31:13;;;;;;;2.60;0.97;;;6.30;99.90;;;;;;5037355;28;20651;-77
2023/12/30 08:33:40;;;;;;;1.90;0.83;;;6.30;99.90;;;;;;5047672;28;20206;-77
2023/12/30 08:36:07;;;;;;;3.17;0.50;;;6.30;99.90;;;;;;5047833;28;20306;-77
2023/12/30 08:38:34;;;;;;;1.80;1.03;;;6.30;99.90;;;;;;5047509;28;20204;-80
2023/12/30 08:41:02;;;;;;;1.63;0.90;;;6.30;99.90;;;;;;5047329;28;20327;-80
2023/12/30 08:43:30;;;;;;;2.60;0.80;;;6.30;99.90;;;;;;5047593;28;20218;-81
2023/12/30 08:45:57;;;;;;;1.10;0.70;;;6.40;99.90;;;;;;5047777;28;20207;-81
2023/12/30 08:48:24;;;;;;;3.03;1.07;;;6.30;99.90;;;;;;5047498;28;20306;-80
2023/12/30 08:50:51;;;;;;;3.30;0.80;;;6.40;99.90;;;;;;5047686;28;20585;-80
2023/12/30 08:53:24;;;;;;;2.83;0.90;;;6.40;99.90;;;;;;5047237;28;20207;-80
2023/12/30 08:55:51;;;;;;;2.20;1.40;;;6.50;99.90;;;;;;5027769;28;20197;-80
2023/12/30 08:58:18;;;;;;;2.60;1.20;;;6.50;99.90;;;;;;5027313;28;20205;-78
2023/12/30 09:00:46;;;;;;;2.73;1.20;;;6.50;99.90;;;;;;5046638;28;20642;-77
2023/12/30 09:03:13;;;;;;;3.00;0.90;;;6.50;99.90;;;;;;5047154;28;20206;-77
2023/12/30 09:05:41;;;;;;;2.47;1.03;;;6.60;99.90;;;;;;5047489;28;20282;-78
2023/12/30 09:08:08;;;;;;;4.00;0.93;;;6.60;99.90;;;;;;5047074;28;20786;-80
2023/12/30 09:10:35;;;;;;;2.53;0.80;;;6.60;99.90;;;;;;5046833;28;20267;-79
2023/12/30 09:13:02;;;;;;;3.93;1.00;;;6.70;99.90;;;;;;5047168;28;20200;-79
2023/12/30 09:15:29;;;;;;;3.03;1.20;;;6.70;99.90;;;;;;5046998;28;20666;-80
2023/12/30 09:17:58;;;;;;;4.20;1.07;;;6.70;99.90;;;;;;5047240;28;20210;-79
2023/12/30 09:20:25;;;;;;;2.47;0.90;;;6.70;99.90;;;;;;5044039;28;20299;-79
2023/12/30 09:22:52;;;;;;;2.73;1.17;;;6.70;99.90;;;;;;5047014;28;20220;-81
2023/12/30 09:25:19;;;;;;;5.40;1.33;;;6.70;99.90;;;;;;5046589;28;20783;-79
2023/12/30 09:27:46;;;;;;;2.60;0.90;;;6.70;99.90;;;;;;5049616;28;20781;-80
2023/12/30 09:30:14;;;;;;;2.93;1.00;;;6.70;99.90;;;;;;5046872;28;20235;-80
2023/12/30 09:32:41;;;;;;;6.60;1.10;;;6.70;99.90;;;;;;5046418;28;20208;-80
2023/12/30 09:35:09;;;;;;;2.03;0.73;;;6.70;99.90;;;;;;5046789;28;20218;-79
2023/12/30 09:37:36;;;;;;;4.17;1.20;;;6.70;99.90;;;;;;5046193;28;20208;-80
2023/12/30 09:40:04;;;;;;;1.73;0.80;;;6.70;99.90;;;;;;5046497;28;20240;-80
2023/12/30 09:42:31;;;;;;;3.47;1.03;;;6.70;99.90;;;;;;5046135;28;20230;-80
2023/12/30 09:44:59;;;;;;;2.30;0.80;;;6.70;99.90;;;;;;5046143;28;20518;-79
2023/12/30 09:47:28;;;;;;;2.20;0.90;;;6.80;99.90;;;;;;5046644;28;20235;-79
2023/12/30 09:49:55;;;;;;;1.57;1.00;;;6.80;99.90;;;;;;5046655;28;20259;-79
2023/12/30 09:52:23;;;;;;;3.27;1.20;;;6.80;99.90;;;;;;5045917;28;20577;-79
2023/12/30 09:54:50;;;;;;;5.73;1.07;;;6.80;99.90;;;;;;5034466;28;20727;-79
2023/12/30 09:57:17;;;;;;;1.77;1.13;;;6.80;99.90;;;;;;5046366;28;20230;-79
2023/12/30 09:59:46;;;;;;;2.77;1.20;;;6.80;99.90;;;;;;5045877;28;20207;-80
2023/12/30 10:02:14;;;;;;;3.67;1.20;;;6.80;99.90;;;;;;5046073;28;20306;-80
2023/12/30 10:04:41;;;;;;;2.70;1.40;;;6.90;99.90;;;;;;5046402;28;20337;-79
2023/12/30 10:07:08;;;;;;;4.13;1.20;;;6.90;99.90;;;;;;5045849;28;20628;-80
2023/12/30 10:09:36;;;;;;;2.37;1.50;;;6.90;99.90;;;;;;5045288;28;20240;-80
2023/12/30 10:12:03;;;;;;;2.97;1.17;;;6.90;99.90;;;;;;5045860;28;20204;-80
2023/12/30 10:14:32;;;;;;;3.47;1.47;;;6.90;99.90;;;;;;5045599;28;20295;-81
2023/12/30 10:17:02;;;;;;;2.03;1.00;;;7.00;99.90;;;;;;5045260;28;20239;-79
2023/12/30 10:19:28;;;;;;;4.33;1.13;;;7.00;99.90;;;;;;5045680;28;20236;-80
2023/12/30 10:21:56;;;;;;;5.50;1.50;;;7.10;99.90;;;;;;5045743;28;20291;-80
2023/12/30 10:24:23;;;;;;;4.77;1.23;;;7.00;99.90;;;;;;5044037;28;20223;-79
2023/12/30 10:26:52;;;;;;;2.90;1.23;;;7.10;99.90;;;;;;5045615;28;20235;-80
2023/12/30 10:29:19;;;;;;;3.20;1.10;;;7.10;99.90;;;;;;5045742;28;20439;-81
2023/12/30 10:31:59;;;;;;;2.80;1.50;;;7.20;99.90;;;;;;5045499;28;20860;-80
2023/12/30 10:34:26;;;;;;;4.03;1.43;;;7.20;99.90;;;;;;5045201;28;20202;-80
2023/12/30 10:36:54;;;;;;;1.77;0.93;;;7.30;99.90;;;;;;5045893;28;20232;-80
2023/12/30 10:39:23;;;;;;;5.37;1.63;;;7.30;99.90;;;;;;5043633;28;20403;-81
2023/12/30 10:41:51;;;;;;;3.40;1.40;;;7.30;99.90;;;;;;5044972;28;20336;-80
2023/12/30 10:44:18;;;;;;;3.77;1.10;;;7.40;99.90;;;;;;5044997;28;20307;-79
2023/12/30 10:46:48;;;;;;;3.97;1.40;;;7.40;99.90;;;;;;5045100;28;20234;-79
2023/12/30 10:49:17;;;;;;;3.73;1.30;;;7.40;99.90;;;;;;5044709;28;20258;-79
2023/12/30 10:51:47;;;;;;;3.13;1.43;;;7.40;99.90;;;;;;5044982;28;20684;-79
2023/12/30 10:54:19;;;;;;;3.10;1.30;;;7.40;99.90;;;;;;5044586;28;20291;-80
2023/12/30 10:56:55;;;;;;;3.10;0.97;;;7.40;99.90;;;;;;5045060;28;20619;-79
2023/12/30 10:59:28;;;;;;;2.17;1.43;;;7.40;99.90;;;;;;5044612;28;20231;-75
2023/12/30 11:01:55;;;;;;;5.97;1.50;;;7.40;99.90;;;;;;5044276;28;20701;-79
2023/12/30 11:04:22;;;;;;;3.37;1.50;;;7.50;99.90;;;;;;5044544;28;20696;-76
2023/12/30 11:06:52;;;;;;;3.60;1.30;;;7.50;99.90;;;;;;5044168;28;20425;-78
2023/12/30 11:09:23;;;;;;;5.67;1.67;;;7.50;99.90;;;;;;5036947;28;20327;-78
2023/12/30 11:11:52;;;;;;;3.90;1.60;;;7.50;99.90;;;;;;5042366;28;20303;-79
2023/12/30 11:14:19;;;;;;;3.30;1.20;;;7.60;99.90;;;;;;5048656;28;20208;-78
2023/12/30 11:16:50;;;;;;;5.50;1.57;;;7.60;99.90;;;;;;5048397;28;20239;-77
2023/12/30 11:19:27;;;;;;;3.63;1.53;;;7.60;99.90;;;;;;5047382;28;20203;-78
2023/12/30 11:21:55;;;;;;;3.17;1.37;;;7.60;99.90;;;;;;5048383;28;20203;-78
2023/12/30 11:24:23;;;;;;;3.80;1.50;;;7.60;99.90;;;;;;5047254;28;20208;-77
2023/12/30 11:26:53;;;;;;;4.07;2.17;;;7.70;99.90;;;;;;5042448;28;20292;-77
2023/12/30 11:29:21;;;;;;;6.37;2.00;;;7.60;99.90;;;;;;5046171;28;20571;-73
2023/12/30 11:31:50;;;;;;;4.03;2.13;;;7.70;99.90;;;;;;5047976;28;20266;-75
2023/12/30 11:34:17;;;;;;;3.73;1.60;;;7.70;99.90;;;;;;5047912;28;20238;-76
2023/12/30 11:36:46;;;;;;;4.40;1.60;;;7.70;99.90;;;;;;5048627;28;20258;-76
2023/12/30 11:39:18;;;;;;;2.77;1.40;;;7.80;99.90;;;;;;5045677;28;20208;-76
2023/12/30 11:41:45;;;;;;;10.93;4.57;;;7.80;99.90;;;;;;5048351;28;20433;-78
2023/12/30 11:44:12;;;;;;;5.37;1.97;;;7.70;99.90;;;;;;5048533;28;20257;-79
2023/12/30 11:46:39;;;;;;;6.17;1.97;;;7.80;99.90;;;;;;5047904;28;20295;-78
2023/12/30 11:49:08;;;;;;;3.47;1.00;;;7.80;99.90;;;;;;5047771;28;20236;-79
2023/12/30 11:51:35;;;;;;;4.13;1.47;;;7.80;99.90;;;;;;5047706;28;20211;-79
2023/12/30 11:54:03;;;;;;;1.93;1.40;;;7.80;99.90;;;;;;5047615;28;20643;-77
2023/12/30 11:56:31;;;;;;;5.57;1.70;;;7.80;99.90;;;;;;5048032;28;20227;-77
2023/12/30 11:58:58;;;;;;;3.90;1.70;;;7.80;99.90;;;;;;5047840;28;20236;-77
2023/12/30 12:01:25;;;;;;;2.80;1.33;;;7.80;99.90;;;;;;5035697;28;20212;-76
2023/12/30 12:03:52;;;;;;;6.07;1.80;;;7.80;99.90;;;;;;5047414;28;20298;-76
2023/12/30 12:06:20;;;;;;;3.40;1.70;;;7.90;99.90;;;;;;5048101;28;20201;-76
2023/12/30 12:08:48;;;;;;;4.83;1.63;;;7.90;99.90;;;;;;5047192;28;20279;-76
2023/12/30 12:11:15;;;;;;;5.40;1.67;;;7.90;99.90;;;;;;5046135;28;20200;-76
2023/12/30 12:13:42;;;;;;;4.70;2.00;;;7.90;99.90;;;;;;5039588;28;20299;-77
2023/12/30 12:16:09;;;;;;;2.50;1.57;;;7.90;99.90;;;;;;5046149;28;20311;-77
2023/12/30 12:18:36;;;;;;;4.47;1.33;;;7.90;99.90;;;;;;5045488;28;20298;-76
2023/12/30 12:21:12;;;;;;;4.30;1.47;;;8.00;99.90;;;;;;5042576;28;20651;-77
2023/12/30 12:23:41;;;;;;;3.67;1.50;;;7.90;99.90;;;;;;5039493;28;20742;-76
2023/12/30 12:26:08;;;;;;;4.77;1.70;;;7.90;99.90;;;;;;5043054;28;20200;-76
2023/12/30 12:28:36;;;;;;;5.80;1.80;;;7.90;99.90;;;;;;5040513;28;20591;-76
2023/12/30 12:31:03;;;;;;;5.93;1.87;;;7.90;99.90;;;;;;5043132;28;20211;-77
2023/12/30 12:33:30;;;;;;;3.33;1.40;;;7.90;99.90;;;;;;5037352;28;20236;-76
2023/12/30 12:35:57;;;;;;;2.00;1.17;;;8.00;99.90;;;;;;5036057;28;20283;-77
2023/12/30 12:38:24;;;;;;;4.53;1.20;;;8.00;99.90;;;;;;5042862;28;20294;-76
2023/12/30 12:40:52;;;;;;;3.97;1.30;;;8.00;99.90;;;;;;5037805;28;20295;-76
2023/12/30 12:43:19;;;;;;;4.43;1.93;;;8.00;99.90;;;;;;5038185;28;20282;-80
2023/12/30 12:45:46;;;;;;;3.07;1.23;;;8.00;99.90;;;;;;5047381;28;20290;-76
2023/12/30 12:48:15;;;;;;;4.30;2.53;;;8.00;99.90;;;;;;5046551;28;20227;-77
2023/12/30 12:50:42;;;;;;;2.57;1.33;;;8.00;99.90;;;;;;5046958;28;20240;-76
2023/12/30 12:53:08;;;;;;;4.07;1.70;;;8.00;99.90;;;;;;5046506;28;20212;-76
2023/12/30 12:55:36;;;;;;;2.67;1.37;;;8.00;99.90;;;;;;5043336;28;20732;-77
2023/12/30 12:58:04;;;;;;;3.63;1.50;;;8.00;99.90;;;;;;5046624;28;20208;-77
2023/12/30 13:00:32;;;;;;;3.30;1.67;;;8.00;99.90;;;;;;5046640;28;20303;-76